Time;durP1;ratioP1;P1;durP2;ratioP2;P2;SDS_P1;SDS_P2;PMS_P1;PMS_P2;Temp;Humidity;BMP_temperature;BMP_pressure;BME280_temperature;BME280_humidity;BME280_pressure;Samples;Min_cycle;Max_cycle;Signal;HPM_P1;HPM_P2
2023/01/16 00:01:58;;;;;;;31.40;28.70;;;;;;;4.63;100.00;99372.00;5012126;28;20918;-43
2023/01/16 00:04:26;;;;;;;31.37;28.90;;;;;;;4.60;100.00;99371.59;5011543;28;20552;-43
2023/01/16 00:06:54;;;;;;;30.53;28.77;;;;;;;4.61;100.00;99360.81;5012404;28;20426;-43
2023/01/16 00:09:21;;;;;;;30.57;28.37;;;;;;;4.60;100.00;99374.22;5012148;28;21174;-47
2023/01/16 00:11:49;;;;;;;30.37;28.13;;;;;;;4.58;100.00;99373.59;5012064;28;20571;-45
2023/01/16 00:14:17;;;;;;;29.70;27.47;;;;;;;4.57;100.00;99369.34;5011358;28;20902;-43
2023/01/16 00:16:46;;;;;;;30.17;28.03;;;;;;;4.58;100.00;99366.47;5012328;28;20429;-46
2023/01/16 00:19:14;;;;;;;29.80;27.30;;;;;;;4.61;100.00;99363.47;5012288;28;20435;-49
2023/01/16 00:21:41;;;;;;;29.37;27.33;;;;;;;4.65;100.00;99364.72;5012057;28;20799;-43
2023/01/16 00:24:09;;;;;;;28.60;26.90;;;;;;;4.66;100.00;99358.41;5011434;28;20464;-43
2023/01/16 00:26:36;;;;;;;29.87;27.30;;;;;;;4.67;100.00;99346.03;5012048;28;20435;-44
2023/01/16 00:29:04;;;;;;;31.77;29.07;;;;;;;4.67;100.00;99349.50;5011928;28;20441;-46
2023/01/16 00:31:32;;;;;;;30.13;28.20;;;;;;;4.70;100.00;99348.28;5011990;28;20532;-46
2023/01/16 00:34:01;;;;;;;31.20;29.07;;;;;;;4.65;100.00;99348.88;5011238;28;20472;-43
2023/01/16 00:36:29;;;;;;;30.50;28.50;;;;;;;4.67;100.00;99338.94;5011952;28;20524;-46
2023/01/16 00:38:57;;;;;;;31.07;29.07;;;;;;;4.63;100.00;99344.81;5004165;28;20946;-43
2023/01/16 00:41:24;;;;;;;30.30;28.20;;;;;;;4.57;100.00;99332.38;4995691;28;20476;-48
2023/01/16 00:43:54;;;;;;;31.20;28.83;;;;;;;4.56;100.00;99334.19;5010885;28;20476;-45
2023/01/16 00:46:22;;;;;;;29.67;27.80;;;;;;;4.53;100.00;99344.31;5011915;28;20789;-47
2023/01/16 00:48:49;;;;;;;29.53;27.70;;;;;;;4.53;100.00;99353.06;5011736;28;20946;-44
2023/01/16 00:51:18;;;;;;;32.40;29.00;;;;;;;4.53;100.00;99350.41;5011588;28;20510;-45
2023/01/16 00:53:46;;;;;;;31.30;28.60;;;;;;;4.52;100.00;99347.94;5011243;28;20486;-45
2023/01/16 00:56:13;;;;;;;31.30;29.50;;;;;;;4.51;100.00;99344.50;5011398;28;20433;-43
2023/01/16 00:58:41;;;;;;;31.17;28.47;;;;;;;4.47;100.00;99364.38;5011877;28;20440;-48
2023/01/16 01:01:08;;;;;;;30.40;28.47;;;;;;;4.46;100.00;99360.09;5011571;28;20461;-43
2023/01/16 01:03:36;;;;;;;31.90;29.20;;;;;;;4.45;100.00;99353.16;5011155;28;20994;-43
2023/01/16 01:06:06;;;;;;;31.13;29.10;;;;;;;4.46;100.00;99352.16;5011386;28;20439;-44
2023/01/16 01:08:35;;;;;;;31.67;29.40;;;;;;;4.42;100.00;99338.53;5012126;28;20437;-47
2023/01/16 01:11:07;;;;;;;30.50;28.67;;;;;;;4.42;100.00;99345.66;5015333;28;20534;-44
2023/01/16 01:13:35;;;;;;;30.87;29.23;;;;;;;4.38;100.00;99355.78;5015088;28;20830;-47
2023/01/16 01:16:03;;;;;;;31.20;29.30;;;;;;;4.39;100.00;99357.38;5015169;28;20433;-44
2023/01/16 01:18:31;;;;;;;31.07;28.87;;;;;;;4.34;100.00;99354.50;5015325;28;20483;-46
2023/01/16 01:20:59;;;;;;;31.53;29.47;;;;;;;4.31;100.00;99352.25;5014884;28;20966;-44
2023/01/16 01:23:26;;;;;;;31.73;30.00;;;;;;;4.26;100.00;99353.84;5014847;28;21056;-45
2023/01/16 01:25:56;;;;;;;30.93;29.20;;;;;;;4.26;100.00;99348.56;5015057;28;20432;-46
2023/01/16 01:28:23;;;;;;;31.03;29.13;;;;;;;4.24;100.00;99351.38;5015171;28;20459;-44
2023/01/16 01:30:51;;;;;;;31.27;29.20;;;;;;;4.23;100.00;99346.28;5014903;28;20483;-44
2023/01/16 01:33:18;;;;;;;32.40;30.20;;;;;;;4.20;100.00;99341.41;5013994;28;20982;-44
2023/01/16 01:35:46;;;;;;;31.97;29.70;;;;;;;4.16;100.00;99326.94;5014612;28;20950;-46
2023/01/16 01:38:14;;;;;;;32.70;30.17;;;;;;;4.18;100.00;99346.06;5007388;28;20919;-45
2023/01/16 01:40:41;;;;;;;32.10;30.10;;;;;;;4.19;100.00;99342.41;5006707;28;20452;-45
2023/01/16 01:43:15;;;;;;;32.57;30.40;;;;;;;4.18;100.00;99346.06;5014400;28;20496;-44
2023/01/16 01:45:47;;;;;;;31.70;29.47;;;;;;;4.20;100.00;99338.75;5014560;28;20549;-44
2023/01/16 01:48:24;;;;;;;33.00;30.50;;;;;;;4.22;100.00;99342.00;5014633;28;20536;-45
2023/01/16 01:50:56;;;;;;;32.60;30.30;;;;;;;4.21;100.00;99332.50;5014697;28;20436;-46
2023/01/16 01:53:28;;;;;;;32.37;30.47;;;;;;;4.24;100.00;99332.91;5014362;28;20468;-43
2023/01/16 01:55:58;;;;;;;31.40;29.47;;;;;;;4.22;100.00;99327.00;5014386;28;20440;-43
2023/01/16 01:58:29;;;;;;;32.60;30.20;;;;;;;4.22;100.00;99326.19;5014488;28;20433;-44
2023/01/16 02:01:00;;;;;;;32.80;30.83;;;;;;;4.21;100.00;99320.09;5014427;28;20461;-44
2023/01/16 02:03:33;;;;;;;33.70;31.53;;;;;;;4.24;100.00;99316.28;5013975;28;20465;-45
2023/01/16 02:06:06;;;;;;;33.80;31.60;;;;;;;4.24;100.00;99318.91;5014284;28;20444;-43
2023/01/16 02:08:36;;;;;;;33.93;31.53;;;;;;;4.24;100.00;99319.72;5014415;28;20437;-44
2023/01/16 02:11:08;;;;;;;33.87;31.27;;;;;;;4.26;100.00;99323.00;5014093;28;20874;-43
2023/01/16 02:13:39;;;;;;;33.13;30.80;;;;;;;4.28;100.00;99325.44;5013913;28;20457;-46
2023/01/16 02:22:26;;;;;;;32.30;30.20;;;;;;;4.33;100.00;99323.06;5002684;28;20488;-46
2023/01/16 02:25:37;;;;;;;33.23;31.43;;;;;;;4.36;100.00;99322.66;5013792;28;20436;-47
2023/01/16 02:28:33;;;;;;;33.00;31.20;;;;;;;4.39;100.00;99319.66;5014015;28;20445;-45
2023/01/16 02:31:12;;;;;;;34.47;32.13;;;;;;;4.42;100.00;99306.06;5007042;28;20452;-43
2023/01/16 02:33:55;;;;;;;33.63;31.53;;;;;;;4.44;100.00;99309.31;5013398;28;20515;-48
2023/01/16 02:36:34;;;;;;;33.80;31.27;;;;;;;4.46;100.00;99302.03;5011714;28;20433;-46
2023/01/16 02:39:11;;;;;;;33.67;31.80;;;;;;;4.46;100.00;99304.66;4978274;28;20443;-43
2023/01/16 02:41:48;;;;;;;33.37;31.33;;;;;;;4.46;100.00;99294.09;4996033;28;20461;-43
2023/01/16 02:44:25;;;;;;;33.93;31.70;;;;;;;4.47;100.00;99293.09;5011691;28;21029;-44
2023/01/16 02:47:14;;;;;;;34.67;31.90;;;;;;;4.50;100.00;99290.09;5013763;28;20439;-44
2023/01/16 02:49:48;;;;;;;34.57;32.60;;;;;;;4.51;100.00;99289.06;5013759;28;20819;-48
2023/01/16 02:52:23;;;;;;;34.43;32.17;;;;;;;4.53;100.00;99284.41;5013486;28;20481;-44
2023/01/16 02:54:58;;;;;;;34.83;32.63;;;;;;;4.52;100.00;99274.03;5012818;28;20451;-46
2023/01/16 02:57:30;;;;;;;35.83;33.20;;;;;;;4.55;100.00;99286.84;5013636;28;20432;-43
2023/01/16 02:59:58;;;;;;;34.60;32.17;;;;;;;4.55;100.00;99284.22;5013528;28;20429;-48
2023/01/16 03:02:27;;;;;;;34.97;32.90;;;;;;;4.56;100.00;99270.84;5012740;28;20511;-43
2023/01/16 03:04:54;;;;;;;35.37;33.07;;;;;;;4.54;100.00;99277.31;5013135;28;20922;-45
2023/01/16 03:07:45;;;;;;;34.60;32.60;;;;;;;4.56;100.00;99270.84;5013155;28;20433;-45
2023/01/16 03:10:45;;;;;;;34.50;32.47;;;;;;;4.52;100.00;99264.28;5013246;28;20425;-45
2023/01/16 03:13:22;;;;;;;36.00;33.80;;;;;;;4.53;100.00;99262.47;5001131;28;20473;-45
2023/01/16 03:15:58;;;;;;;35.53;33.30;;;;;;;4.52;100.00;99258.19;5012967;28;20435;-45
2023/01/16 03:18:35;;;;;;;36.87;33.83;;;;;;;4.49;100.00;99256.75;5013181;28;20427;-48
2023/01/16 03:21:10;;;;;;;35.40;33.13;;;;;;;4.50;100.00;99255.75;5013076;28;20452;-46
2023/01/16 03:23:50;;;;;;;34.50;32.50;;;;;;;4.52;100.00;99253.75;5012564;28;20826;-43
2023/01/16 03:26:27;;;;;;;34.30;32.30;;;;;;;4.52;100.00;99253.75;5012985;28;20437;-48
2023/01/16 03:29:03;;;;;;;34.77;32.77;;;;;;;4.51;100.00;99251.31;5013070;28;20455;-45
2023/01/16 03:31:38;;;;;;;33.80;31.60;;;;;;;4.50;100.00;99250.47;5012853;28;20477;-45
2023/01/16 03:34:13;;;;;;;34.63;31.87;;;;;;;4.51;100.00;99249.47;5012173;28;20878;-45
2023/01/16 03:36:50;;;;;;;33.40;31.60;;;;;;;4.52;100.00;99248.47;5010320;28;20429;-48
2023/01/16 03:39:27;;;;;;;35.03;32.87;;;;;;;4.51;100.00;99244.16;4980765;28;20434;-44
2023/01/16 03:42:02;;;;;;;35.60;33.40;;;;;;;4.51;100.00;99249.47;4974763;28;20450;-44
2023/01/16 03:44:35;;;;;;;34.30;32.30;;;;;;;4.54;100.00;99254.34;4974769;28;20470;-47
2023/01/16 03:47:06;;;;;;;35.23;32.83;;;;;;;4.52;100.00;99256.38;4977879;28;20814;-44
2023/01/16 03:49:41;;;;;;;35.90;33.23;;;;;;;4.55;100.00;99263.09;4976614;28;20439;-44
2023/01/16 03:52:13;;;;;;;34.10;31.70;;;;;;;4.57;100.00;99263.72;4978005;28;20482;-44
2023/01/16 03:54:46;;;;;;;34.33;32.13;;;;;;;4.59;100.00;99259.06;4998748;28;20458;-45
2023/01/16 03:57:17;;;;;;;34.90;32.70;;;;;;;4.59;100.00;99259.06;5010814;28;20433;-44
2023/01/16 03:59:47;;;;;;;34.43;31.70;;;;;;;4.59;100.00;99256.41;5012423;28;20980;-48
2023/01/16 04:02:19;;;;;;;34.57;32.07;;;;;;;4.58;100.00;99260.88;5012107;28;20978;-44
2023/01/16 04:04:53;;;;;;;34.83;32.50;;;;;;;4.61;100.00;99262.31;5011971;28;20814;-44
2023/01/16 04:07:27;;;;;;;33.17;31.20;;;;;;;4.61;100.00;99263.13;5012287;28;20520;-48
2023/01/16 04:09:58;;;;;;;33.83;31.83;;;;;;;4.61;100.00;99264.94;5012155;28;20440;-45
2023/01/16 04:12:30;;;;;;;33.77;31.60;;;;;;;4.60;100.00;99253.56;5011539;28;20499;-44
2023/01/16 04:15:01;;;;;;;33.87;31.97;;;;;;;4.58;100.00;99250.31;5012097;28;20830;-47
2023/01/16 04:17:30;;;;;;;33.67;31.80;;;;;;;4.59;100.00;99240.59;5012256;28;20429;-48
2023/01/16 04:19:59;;;;;;;34.10;31.97;;;;;;;4.56;100.00;99233.88;5012223;28;20440;-46
2023/01/16 04:22:29;;;;;;;32.90;31.10;;;;;;;4.59;100.00;99225.56;5011506;28;20449;-46
2023/01/16 04:24:59;;;;;;;33.73;31.40;;;;;;;4.60;100.00;99224.53;5011838;28;20433;-44
2023/01/16 04:27:27;;;;;;;33.07;31.13;;;;;;;4.59;100.00;99222.91;5012149;28;20418;-49
2023/01/16 04:29:55;;;;;;;32.30;30.40;;;;;;;4.59;100.00;99222.91;5012035;28;20429;-49
2023/01/16 04:32:23;;;;;;;33.23;31.17;;;;;;;4.59;100.00;99220.28;5011316;28;20448;-45
2023/01/16 04:34:50;;;;;;;33.20;31.20;;;;;;;4.58;100.00;99207.25;5011606;28;20456;-44
2023/01/16 04:37:19;;;;;;;34.67;32.63;;;;;;;4.58;100.00;99205.44;5009935;28;20433;-45
2023/01/16 04:39:47;;;;;;;32.10;30.10;;;;;;;4.58;100.00;99200.16;5000262;28;20998;-49
2023/01/16 04:42:15;;;;;;;33.17;31.17;;;;;;;4.59;100.00;99206.25;5010650;28;20458;-47
2023/01/16 04:44:43;;;;;;;33.07;31.00;;;;;;;4.58;100.00;99194.88;5018606;28;20457;-47
2023/01/16 04:47:10;;;;;;;32.97;31.27;;;;;;;4.61;100.00;99194.50;5026853;28;20436;-51
2023/01/16 04:49:38;;;;;;;32.60;31.00;;;;;;;4.61;100.00;99191.03;5026336;28;20437;-48
2023/01/16 04:52:06;;;;;;;52.73;48.93;;;;;;;4.62;100.00;99196.13;5026007;28;20461;-52
2023/01/16 04:54:35;;;;;;;34.37;31.43;;;;;;;4.64;100.00;99191.47;5024697;28;20461;-46
2023/01/16 04:57:02;;;;;;;34.10;32.20;;;;;;;4.67;100.00;99187.59;5026087;28;20439;-46
2023/01/16 04:59:30;;;;;;;34.80;32.70;;;;;;;4.69;100.00;99190.88;5012529;28;20443;-52
2023/01/16 05:01:58;;;;;;;34.27;32.07;;;;;;;4.71;100.00;99194.97;5011583;28;20474;-46
2023/01/16 05:04:26;;;;;;;33.03;30.63;;;;;;;4.72;100.00;99198.41;5006149;28;20557;-48
2023/01/16 05:06:53;;;;;;;32.50;30.87;;;;;;;4.72;100.00;99186.00;5007040;28;20430;-53
2023/01/16 05:09:21;;;;;;;33.00;30.90;;;;;;;4.71;100.00;99176.47;5006191;28;20434;-46
2023/01/16 05:11:50;;;;;;;32.27;30.40;;;;;;;4.69;100.00;99170.56;5006616;28;20453;-47
2023/01/16 05:14:17;;;;;;;33.17;31.07;;;;;;;4.70;100.00;99171.38;5005114;28;20473;-48
2023/01/16 05:16:45;;;;;;;33.50;31.30;;;;;;;4.71;100.00;99167.72;5006589;28;20496;-48
2023/01/16 05:19:12;;;;;;;33.20;31.10;;;;;;;4.71;100.00;99165.91;5006432;28;20457;-46
2023/01/16 05:21:40;;;;;;;33.67;31.57;;;;;;;4.72;100.00;99164.88;5006349;28;20461;-49
2023/01/16 05:24:08;;;;;;;35.77;33.03;;;;;;;4.72;100.00;99164.09;5005306;28;20457;-47
2023/01/16 05:26:36;;;;;;;33.50;31.50;;;;;;;4.71;100.00;99173.84;5005867;28;20452;-49
2023/01/16 05:29:05;;;;;;;34.63;32.43;;;;;;;4.69;100.00;99167.91;5006442;28;20434;-48
2023/01/16 05:31:32;;;;;;;35.57;32.87;;;;;;;4.70;100.00;99169.56;5005571;28;20464;-48
2023/01/16 05:34:00;;;;;;;36.73;34.03;;;;;;;4.69;100.00;99169.75;5004026;28;20469;-45
2023/01/16 05:36:28;;;;;;;33.90;32.20;;;;;;;4.69;100.00;99167.91;5005382;28;20430;-45
2023/01/16 05:38:55;;;;;;;35.97;33.70;;;;;;;4.69;100.00;99159.19;5004798;28;20444;-45
2023/01/16 05:41:23;;;;;;;33.43;31.70;;;;;;;4.69;100.00;99153.91;5016982;28;20445;-43
2023/01/16 05:43:50;;;;;;;33.20;31.40;;;;;;;4.66;100.00;99151.66;5023782;28;20460;-44
2023/01/16 05:46:20;;;;;;;36.40;33.70;;;;;;;4.64;100.00;99151.84;5024569;28;20439;-47
2023/01/16 05:48:47;;;;;;;33.73;31.50;;;;;;;4.63;100.00;99152.06;5025156;28;20517;-44
2023/01/16 05:51:16;;;;;;;33.93;31.97;;;;;;;4.63;100.00;99147.56;5023919;28;20463;-44
2023/01/16 05:53:44;;;;;;;33.30;31.30;;;;;;;4.62;100.00;99142.50;5024125;28;20998;-46
2023/01/16 05:56:13;;;;;;;33.20;31.40;;;;;;;4.62;100.00;99142.50;5023529;28;20437;-45
2023/01/16 05:58:41;;;;;;;33.47;31.43;;;;;;;4.62;100.00;99142.50;5024405;28;20448;-46
2023/01/16 06:01:08;;;;;;;33.07;31.17;;;;;;;4.61;100.00;99130.31;5024767;28;20469;-48
2023/01/16 06:03:37;;;;;;;33.47;31.27;;;;;;;4.58;100.00;99128.88;5024426;28;20461;-50
2023/01/16 06:06:05;;;;;;;31.60;29.83;;;;;;;4.56;100.00;99128.28;5024284;28;20461;-44
2023/01/16 06:08:33;;;;;;;31.20;29.33;;;;;;;4.57;100.00;99113.25;5024511;28;20464;-47
2023/01/16 06:11:01;;;;;;;32.13;30.20;;;;;;;4.53;100.00;99118.09;5024557;28;20866;-49
2023/01/16 06:13:28;;;;;;;32.63;30.97;;;;;;;4.51;100.00;99119.31;5024676;28;20476;-47
2023/01/16 06:15:56;;;;;;;32.90;30.87;;;;;;;4.52;100.00;99116.47;5024555;28;20802;-45
2023/01/16 06:18:24;;;;;;;32.10;30.00;;;;;;;4.49;100.00;99108.94;5024901;28;20465;-48
2023/01/16 06:20:53;;;;;;;32.57;30.70;;;;;;;4.48;100.00;99109.94;5024477;28;20445;-47
2023/01/16 06:23:20;;;;;;;33.13;31.27;;;;;;;4.47;100.00;99108.34;5023429;28;20460;-45
2023/01/16 06:25:49;;;;;;;32.50;30.37;;;;;;;4.46;100.00;99110.16;5024004;28;20867;-47
2023/01/16 06:28:17;;;;;;;33.03;31.10;;;;;;;4.46;100.00;99106.69;5024122;28;20437;-46
2023/01/16 06:30:45;;;;;;;33.80;31.90;;;;;;;4.44;100.00;99092.91;5024129;28;20806;-48
2023/01/16 06:33:13;;;;;;;32.73;31.13;;;;;;;4.42;100.00;99095.72;5023153;28;20480;-47
2023/01/16 06:35:41;;;;;;;34.50;31.97;;;;;;;4.41;100.00;99090.66;5024646;28;20489;-46
2023/01/16 06:38:10;;;;;;;33.60;31.53;;;;;;;4.39;100.00;99084.75;5015094;28;20449;-44
2023/01/16 06:40:37;;;;;;;33.77;31.57;;;;;;;4.37;100.00;99087.59;5011549;28;20437;-45
2023/01/16 06:43:05;;;;;;;34.47;32.20;;;;;;;4.36;100.00;99099.13;5003534;28;20465;-47
2023/01/16 06:45:32;;;;;;;33.00;31.10;;;;;;;4.36;100.00;99090.44;5004142;28;20932;-45
2023/01/16 06:48:00;;;;;;;33.10;31.20;;;;;;;4.36;100.00;99098.34;5004231;28;20827;-45
2023/01/16 06:50:28;;;;;;;33.70;31.50;;;;;;;4.37;100.00;99095.50;5004071;28;20506;-45
2023/01/16 06:52:56;;;;;;;34.77;32.63;;;;;;;4.34;100.00;99085.34;5003011;28;20924;-46
2023/01/16 06:55:24;;;;;;;34.77;32.63;;;;;;;4.34;100.00;99087.97;5004090;28;20483;-47
2023/01/16 06:57:52;;;;;;;35.47;32.60;;;;;;;4.35;100.00;99091.44;5004471;28;20442;-48
2023/01/16 07:00:20;;;;;;;32.97;31.23;;;;;;;4.32;100.00;99089.19;5003900;28;20444;-47
2023/01/16 07:02:54;;;;;;;34.90;32.70;;;;;;;4.31;100.00;99092.81;5003247;28;20465;-46
2023/01/16 07:05:22;;;;;;;33.73;31.67;;;;;;;4.30;100.00;99080.66;5003478;28;20419;-44
2023/01/16 07:07:50;;;;;;;33.73;31.20;;;;;;;4.30;100.00;99078.03;5002801;28;20438;-46
2023/01/16 07:10:20;;;;;;;34.17;31.90;;;;;;;4.27;100.00;99084.47;5003142;28;20445;-51
2023/01/16 07:12:49;;;;;;;33.00;30.97;;;;;;;4.29;100.00;99079.84;5002973;28;20583;-46
2023/01/16 07:23:40;;;;;;;31.47;29.77;;;;;;;4.26;100.00;99071.50;5002177;28;20465;-45
2023/01/16 07:26:10;;;;;;;32.90;31.00;;;;;;;4.25;100.00;99072.50;5002739;28;20419;-46
2023/01/16 07:28:39;;;;;;;35.10;32.70;;;;;;;4.26;100.00;99074.13;5003296;28;20441;-47
2023/01/16 07:31:08;;;;;;;33.47;31.53;;;;;;;4.27;100.00;99076.56;5004100;28;20450;-47
2023/01/16 07:33:36;;;;;;;32.63;30.80;;;;;;;4.27;100.00;99071.28;5020959;22;20469;-46
2023/01/16 07:36:04;;;;;;;33.03;31.00;;;;;;;4.27;100.00;99078.41;5021153;28;20472;-45
2023/01/16 07:38:32;;;;;;;32.30;30.20;;;;;;;4.26;100.00;99071.50;5028295;28;20972;-46
2023/01/16 07:40:59;;;;;;;30.90;29.27;;;;;;;4.27;100.00;99055.47;5035153;28;20658;-52
2023/01/16 07:43:27;;;;;;;30.53;29.03;;;;;;;4.31;100.00;99056.69;5042932;28;20522;-48
2023/01/16 07:45:56;;;;;;;31.23;29.53;;;;;;;4.31;100.00;99055.88;5042460;28;20738;-47
2023/01/16 07:48:25;;;;;;;32.20;30.40;;;;;;;4.31;100.00;99050.59;5043064;28;20431;-53
2023/01/16 07:50:53;;;;;;;35.03;32.83;;;;;;;4.31;100.00;99045.31;5043422;28;20456;-49
2023/01/16 07:53:22;;;;;;;39.07;36.47;;;;;;;4.34;100.00;99044.94;5042879;28;20471;-48
2023/01/16 07:55:50;;;;;;;37.33;35.33;;;;;;;4.33;100.00;99044.13;5043174;28;20467;-49
2023/01/16 07:58:19;;;;;;;33.87;32.10;;;;;;;4.35;100.00;99039.47;5042958;28;20436;-44
2023/01/16 08:00:46;;;;;;;33.70;31.90;;;;;;;4.38;100.00;99039.06;5042377;28;20427;-44
2023/01/16 08:03:16;;;;;;;31.90;30.27;;;;;;;4.38;100.00;99041.72;5041593;28;20468;-44
2023/01/16 08:05:44;;;;;;;31.27;29.87;;;;;;;4.39;100.00;99035.41;5041762;28;20435;-45
2023/01/16 08:08:13;;;;;;;31.43;29.40;;;;;;;4.42;100.00;99031.59;5041753;28;20460;-46
2023/01/16 08:10:41;;;;;;;31.57;29.73;;;;;;;4.43;100.00;99023.44;5041644;28;20519;-44
2023/01/16 08:13:08;;;;;;;31.63;30.03;;;;;;;4.45;100.00;99020.59;5042178;28;20468;-49
2023/01/16 08:15:36;;;;;;;31.90;29.90;;;;;;;4.48;100.00;99021.03;5041977;28;20478;-50
2023/01/16 08:18:04;;;;;;;31.90;30.00;;;;;;;4.53;100.00;99014.34;5040749;28;20451;-46
2023/01/16 08:20:33;;;;;;;31.30;29.80;;;;;;;4.55;100.00;99010.47;5041382;28;20507;-46
2023/01/16 08:23:01;;;;;;;30.00;28.67;;;;;;;4.57;100.00;98989.97;5040544;28;20868;-43
2023/01/16 08:25:29;;;;;;;31.00;29.33;;;;;;;4.61;100.00;98998.31;5041339;28;20470;-44
2023/01/16 08:27:56;;;;;;;30.17;28.63;;;;;;;4.61;100.00;98993.84;5041612;28;20844;-45
2023/01/16 08:30:24;;;;;;;30.97;29.17;;;;;;;4.62;100.00;98981.47;5040888;28;20983;-47
2023/01/16 08:32:58;;;;;;;29.17;27.77;;;;;;;4.64;100.00;98982.06;5040508;28;20474;-47
2023/01/16 08:35:26;;;;;;;29.27;28.00;;;;;;;4.69;100.00;98977.00;5040461;28;20888;-45
2023/01/16 08:37:55;;;;;;;29.33;27.87;;;;;;;4.70;100.00;98971.53;5027524;28;20457;-44
2023/01/16 08:40:23;;;;;;;31.20;29.23;;;;;;;4.74;100.00;98961.38;5032649;28;20424;-45
2023/01/16 08:51:25;;;;;;;31.23;29.07;;;;;;;5.10;100.00;98960.97;5041249;28;20472;-46
2023/01/16 08:53:56;;;;;;;29.93;28.50;;;;;;;5.20;100.00;98969.25;5042632;28;20498;-46
2023/01/16 08:56:24;;;;;;;29.53;28.13;;;;;;;5.29;100.00;98962.75;5042700;28;20472;-50
2023/01/16 08:58:52;;;;;;;28.90;27.60;;;;;;;5.44;100.00;98960.69;5042896;28;20447;-50
2023/01/16 09:01:19;;;;;;;29.60;28.20;;;;;;;5.50;100.00;98957.22;5042668;28;20443;-49
2023/01/16 09:03:47;;;;;;;28.53;27.43;;;;;;;5.50;100.00;98957.22;5042142;28;20472;-46
2023/01/16 09:06:15;;;;;;;29.47;27.90;;;;;;;5.49;100.00;98947.69;5041659;28;20428;-46
2023/01/16 09:08:42;;;;;;;29.83;28.33;;;;;;;5.49;100.00;98948.50;5042733;28;20447;-47
2023/01/16 09:14:00;;;;;;;30.30;28.57;;;;;;;5.54;100.00;98935.47;5041402;28;20479;-47
2023/01/16 09:16:28;;;;;;;30.87;29.27;;;;;;;5.48;100.00;98932.84;5042404;28;20468;-50
2023/01/16 09:18:56;;;;;;;32.03;30.30;;;;;;;5.44;100.00;98926.31;5042424;28;20436;-48
2023/01/16 09:21:24;;;;;;;30.17;28.60;;;;;;;5.48;100.00;98922.25;5042899;28;20428;-50
2023/01/16 09:23:52;;;;;;;29.53;28.07;;;;;;;5.49;100.00;98918.59;5041736;28;20483;-46
2023/01/16 09:26:21;;;;;;;30.00;28.53;;;;;;;5.46;100.00;98914.56;5041888;28;20455;-48
2023/01/16 09:28:49;;;;;;;29.40;28.20;;;;;;;5.45;100.00;98914.75;5041970;28;20436;-51
2023/01/16 09:31:18;;;;;;;28.60;27.40;;;;;;;5.40;100.00;98910.09;5045708;28;20439;-47
2023/01/16 09:33:47;;;;;;;29.83;28.20;;;;;;;5.41;100.00;98910.88;5045922;28;20470;-51
2023/01/16 09:36:14;;;;;;;29.20;27.80;;;;;;;5.42;100.00;98905.41;5044925;28;20542;-51
2023/01/16 09:38:42;;;;;;;28.77;27.37;;;;;;;5.41;100.00;98898.47;5030689;28;20436;-48
2023/01/16 09:43:35;;;;;;;29.57;28.17;;;;;;;5.42;100.00;98901.94;5037493;28;20428;-49
2023/01/16 09:44:06;;;;;;;29.07;27.60;;;;;;;5.41;100.00;98897.66;5045009;28;20470;-50
2023/01/16 09:46:39;;;;;;;29.43;27.93;;;;;;;5.43;100.00;98898.28;5046338;28;20451;-47
2023/01/16 09:49:22;;;;;;;29.27;27.67;;;;;;;5.42;100.00;98886.91;5046227;28;20519;-49
2023/01/16 10:00:25;;;;;;;29.70;28.20;;;;;;;5.67;100.00;98884.38;5045640;28;20428;-49
2023/01/16 10:02:52;;;;;;;32.67;30.97;;;;;;;5.63;100.00;98877.88;5045244;28;20463;-50
2023/01/16 10:05:23;;;;;;;29.90;28.67;;;;;;;5.60;100.00;98870.34;5045634;28;20511;-51
2023/01/16 10:07:58;;;;;;;36.87;34.43;;;;;;;5.64;100.00;98871.56;5045067;28;20434;-52
2023/01/16 10:10:43;;;;;;;34.13;32.27;;;;;;;5.64;100.00;98862.81;5046529;28;21055;-46
2023/01/16 10:13:36;;;;;;;28.20;27.00;;;;;;;5.60;100.00;98862.41;5044857;28;20460;-47
2023/01/16 10:16:12;;;;;;;29.17;27.67;;;;;;;5.60;100.00;98862.41;5044912;28;20476;-49
2023/01/16 10:18:50;;;;;;;28.10;27.00;;;;;;;5.52;100.00;98849.44;5045292;28;20805;-49
2023/01/16 10:21:42;;;;;;;27.93;26.83;;;;;;;5.52;100.00;98846.81;5044796;28;20432;-48
2023/01/16 10:24:20;;;;;;;29.53;28.23;;;;;;;5.58;100.00;98833.53;5043903;28;20456;-52
2023/01/16 10:26:58;;;;;;;30.23;28.40;;;;;;;5.65;100.00;98820.28;5044169;28;20416;-45
2023/01/16 10:29:31;;;;;;;29.40;27.77;;;;;;;5.72;100.00;98820.25;5044843;28;20455;-53
2023/01/16 10:32:06;;;;;;;29.77;28.37;;;;;;;5.80;100.00;98809.41;5044668;28;20435;-45
2023/01/16 10:34:39;;;;;;;28.70;27.37;;;;;;;5.81;100.00;98809.22;5043947;28;21050;-49
2023/01/16 10:37:07;;;;;;;27.63;26.53;;;;;;;5.93;100.00;98801.44;5043705;28;20468;-44
2023/01/16 10:39:37;;;;;;;29.47;28.17;;;;;;;5.99;100.00;98804.06;5033369;28;20463;-45
2023/01/16 10:50:43;;;;;;;28.97;27.30;;;;;;;5.98;100.00;98806.91;5043917;28;20428;-46
2023/01/16 10:53:12;;;;;;;31.13;29.30;;;;;;;6.05;100.00;98789.97;5043424;28;20562;-50
2023/01/16 10:55:44;;;;;;;29.80;28.50;;;;;;;6.02;100.00;98792.22;5044054;28;20428;-48
2023/01/16 10:58:26;;;;;;;29.40;27.90;;;;;;;6.06;100.00;98782.84;5043848;28;20508;-46
2023/01/16 11:00:59;;;;;;;29.33;28.03;;;;;;;6.08;100.00;98775.50;5044428;28;20435;-50
2023/01/16 11:03:34;;;;;;;29.10;27.90;;;;;;;6.12;100.00;98769.53;5043480;28;20460;-48
2023/01/16 11:06:08;;;;;;;30.53;29.27;;;;;;;6.13;100.00;98755.28;5043999;28;20456;-48
2023/01/16 11:08:36;;;;;;;29.13;27.83;;;;;;;6.04;100.00;98753.94;5043676;28;20432;-51
2023/01/16 11:11:05;;;;;;;29.13;27.60;;;;;;;6.11;100.00;98751.25;5043327;28;20442;-45
2023/01/16 11:19:21;;;;;;;29.33;27.93;;;;;;;6.18;100.00;98737.97;5044239;28;20436;-48
2023/01/16 11:21:52;;;;;;;29.90;28.00;;;;;;;6.13;100.00;98734.13;5044033;28;20455;-49
2023/01/16 11:24:23;;;;;;;27.87;26.67;;;;;;;6.08;100.00;98722.56;5043052;28;20450;-48
2023/01/16 11:26:53;;;;;;;28.50;27.20;;;;;;;6.09;100.00;98724.97;5043238;28;20428;-50
2023/01/16 11:29:24;;;;;;;29.07;27.40;;;;;;;6.14;100.00;98721.69;5044771;28;20428;-47
2023/01/16 11:31:55;;;;;;;28.27;26.97;;;;;;;6.10;100.00;98716.03;5043715;28;20417;-50
2023/01/16 11:34:27;;;;;;;28.13;26.83;;;;;;;6.18;100.00;98703.56;5042002;28;20456;-50
2023/01/16 11:36:57;;;;;;;28.40;27.30;;;;;;;6.15;100.00;98701.34;5043201;28;20472;-49
2023/01/16 11:39:27;;;;;;;29.13;27.93;;;;;;;6.20;100.00;98696.19;5031654;28;20452;-52
2023/01/16 11:41:58;;;;;;;28.60;27.40;;;;;;;6.23;100.00;98693.94;5039072;28;20436;-48
2023/01/16 11:47:18;;;;;;;28.10;27.00;;;;;;;6.17;100.00;98678.09;5042707;28;20428;-45
2023/01/16 11:49:49;;;;;;;27.90;26.80;;;;;;;6.18;100.00;98664.69;5042970;28;20503;-52
2023/01/16 11:52:26;;;;;;;28.60;27.50;;;;;;;6.20;100.00;98667.91;5042841;28;20445;-47
2023/01/16 11:54:55;;;;;;;27.30;26.30;;;;;;;6.13;100.00;98652.09;5042362;28;20436;-47
2023/01/16 11:57:44;;;;;;;27.20;26.00;;;;;;;6.20;100.00;98644.09;5042633;28;20511;-47
2023/01/16 12:00:44;;;;;;;28.77;27.47;;;;;;;6.18;100.00;98640.03;5043224;28;20837;-53
2023/01/16 12:03:54;;;;;;;27.50;26.40;;;;;;;6.18;100.00;98629.47;5041699;28;20468;-46
2023/01/16 12:06:40;;;;;;;27.80;26.50;;;;;;;6.13;100.00;98630.09;5014294;28;20443;-50
2023/01/16 12:09:34;;;;;;;26.50;25.50;;;;;;;6.22;100.00;98615.56;5042938;28;20443;-45
2023/01/16 12:15:28;;;;;;;29.00;27.50;;;;;;;6.16;100.00;98599.75;5036323;28;20455;-45
2023/01/16 12:18:09;;;;;;;27.30;26.00;;;;;;;6.07;100.00;98593.94;5041383;28;20472;-45
2023/01/16 12:20:49;;;;;;;27.07;25.90;;;;;;;6.06;100.00;98587.03;5040522;28;20424;-44
2023/01/16 12:23:45;;;;;;;26.93;25.70;;;;;;;6.05;100.00;98594.16;5040990;28;20517;-47
2023/01/16 12:26:27;;;;;;;27.60;26.33;;;;;;;6.09;100.00;98574.16;5040668;28;20949;-43
2023/01/16 12:29:12;;;;;;;26.47;25.37;;;;;;;6.10;100.00;98562.56;5041062;28;20439;-45
2023/01/16 12:31:50;;;;;;;27.67;26.47;;;;;;;6.05;100.00;98556.31;5041164;28;20431;-48